sensor_id;sensor_type;location;lat;lon;timestamp;P1;durP1;ratioP1;P2;durP2;ratioP2
20669;SDS011;10494;50.868;4.180;2023-09-08T00:01:48;16.70;;;10.63;;
20669;SDS011;10494;50.868;4.180;2023-09-08T00:04:13;10.30;;;8.93;;
20669;SDS011;10494;50.868;4.180;2023-09-08T00:06:39;13.55;;;10.18;;
20669;SDS011;10494;50.868;4.180;2023-09-08T00:09:06;12.50;;;9.73;;
20669;SDS011;10494;50.868;4.180;2023-09-08T00:11:32;11.77;;;9.13;;
20669;SDS011;10494;50.868;4.180;2023-09-08T00:13:57;16.48;;;9.95;;
20669;SDS011;10494;50.868;4.180;2023-09-08T00:16:23;16.55;;;9.60;;
20669;SDS011;10494;50.868;4.180;2023-09-08T00:18:49;12.88;;;8.82;;
20669;SDS011;10494;50.868;4.180;2023-09-08T00:21:15;10.98;;;8.82;;
20669;SDS011;10494;50.868;4.180;2023-09-08T00:23:41;10.75;;;8.48;;
20669;SDS011;10494;50.868;4.180;2023-09-08T00:26:06;10.55;;;8.68;;
20669;SDS011;10494;50.868;4.180;2023-09-08T00:28:32;10.35;;;8.43;;
20669;SDS011;10494;50.868;4.180;2023-09-08T00:30:58;10.68;;;8.73;;
20669;SDS011;10494;50.868;4.180;2023-09-08T00:33:25;15.65;;;10.70;;
20669;SDS011;10494;50.868;4.180;2023-09-08T00:35:51;13.52;;;9.70;;
20669;SDS011;10494;50.868;4.180;2023-09-08T00:38:18;12.18;;;9.60;;
20669;SDS011;10494;50.868;4.180;2023-09-08T00:40:44;12.23;;;9.60;;
20669;SDS011;10494;50.868;4.180;2023-09-08T00:43:09;11.82;;;9.38;;
20669;SDS011;10494;50.868;4.180;2023-09-08T00:45:40;11.95;;;9.05;;
20669;SDS011;10494;50.868;4.180;2023-09-08T00:48:07;10.07;;;8.60;;
20669;SDS011;10494;50.868;4.180;2023-09-08T00:50:34;12.35;;;8.95;;
20669;SDS011;10494;50.868;4.180;2023-09-08T00:53:01;10.63;;;8.75;;
20669;SDS011;10494;50.868;4.180;2023-09-08T00:55:31;10.80;;;9.60;;
20669;SDS011;10494;50.868;4.180;2023-09-08T00:57:57;17.75;;;9.30;;
20669;SDS011;10494;50.868;4.180;2023-09-08T01:00:24;14.40;;;8.93;;
20669;SDS011;10494;50.868;4.180;2023-09-08T01:02:52;12.82;;;9.18;;
20669;SDS011;10494;50.868;4.180;2023-09-08T01:05:19;12.70;;;9.48;;
20669;SDS011;10494;50.868;4.180;2023-09-08T01:07:45;15.30;;;8.80;;
20669;SDS011;10494;50.868;4.180;2023-09-08T01:10:11;19.23;;;9.48;;
20669;SDS011;10494;50.868;4.180;2023-09-08T01:12:38;13.75;;;9.63;;
20669;SDS011;10494;50.868;4.180;2023-09-08T01:15:04;12.73;;;9.27;;
20669;SDS011;10494;50.868;4.180;2023-09-08T01:17:30;15.27;;;9.15;;
20669;SDS011;10494;50.868;4.180;2023-09-08T01:19:56;14.02;;;9.15;;
20669;SDS011;10494;50.868;4.180;2023-09-08T01:25:24;13.35;;;9.77;;
20669;SDS011;10494;50.868;4.180;2023-09-08T01:27:54;11.88;;;9.45;;
20669;SDS011;10494;50.868;4.180;2023-09-08T01:30:23;10.85;;;8.90;;
20669;SDS011;10494;50.868;4.180;2023-09-08T01:32:50;12.93;;;9.43;;
20669;SDS011;10494;50.868;4.180;2023-09-08T01:35:16;16.58;;;9.02;;
20669;SDS011;10494;50.868;4.180;2023-09-08T01:37:46;10.80;;;8.77;;
20669;SDS011;10494;50.868;4.180;2023-09-08T01:40:13;14.80;;;9.05;;
20669;SDS011;10494;50.868;4.180;2023-09-08T01:42:39;9.90;;;8.63;;
20669;SDS011;10494;50.868;4.180;2023-09-08T01:45:05;12.43;;;8.60;;
20669;SDS011;10494;50.868;4.180;2023-09-08T01:47:33;14.65;;;9.68;;
20669;SDS011;10494;50.868;4.180;2023-09-08T01:49:59;11.05;;;8.98;;
20669;SDS011;10494;50.868;4.180;2023-09-08T01:52:26;12.50;;;8.70;;
20669;SDS011;10494;50.868;4.180;2023-09-08T01:54:52;11.85;;;8.93;;
20669;SDS011;10494;50.868;4.180;2023-09-08T01:57:18;11.40;;;9.07;;
20669;SDS011;10494;50.868;4.180;2023-09-08T01:59:44;11.68;;;8.77;;
20669;SDS011;10494;50.868;4.180;2023-09-08T02:02:10;14.02;;;8.75;;
20669;SDS011;10494;50.868;4.180;2023-09-08T02:04:36;11.48;;;8.07;;
20669;SDS011;10494;50.868;4.180;2023-09-08T02:07:02;13.05;;;9.15;;
20669;SDS011;10494;50.868;4.180;2023-09-08T02:09:32;12.38;;;8.75;;
20669;SDS011;10494;50.868;4.180;2023-09-08T02:11:59;11.25;;;8.40;;
20669;SDS011;10494;50.868;4.180;2023-09-08T02:14:25;10.48;;;8.55;;
20669;SDS011;10494;50.868;4.180;2023-09-08T02:16:51;11.15;;;8.35;;
20669;SDS011;10494;50.868;4.180;2023-09-08T02:19:16;13.60;;;8.38;;
20669;SDS011;10494;50.868;4.180;2023-09-08T02:21:42;11.25;;;8.70;;
20669;SDS011;10494;50.868;4.180;2023-09-08T02:24:08;13.55;;;8.98;;
20669;SDS011;10494;50.868;4.180;2023-09-08T02:26:33;12.85;;;8.90;;
20669;SDS011;10494;50.868;4.180;2023-09-08T02:29:00;15.35;;;9.02;;
20669;SDS011;10494;50.868;4.180;2023-09-08T02:31:26;10.57;;;8.93;;
20669;SDS011;10494;50.868;4.180;2023-09-08T02:33:53;11.15;;;9.10;;
20669;SDS011;10494;50.868;4.180;2023-09-08T02:36:18;12.52;;;9.35;;
20669;SDS011;10494;50.868;4.180;2023-09-08T02:38:50;12.57;;;9.48;;
20669;SDS011;10494;50.868;4.180;2023-09-08T02:41:19;14.00;;;9.43;;
20669;SDS011;10494;50.868;4.180;2023-09-08T02:43:46;10.63;;;8.88;;
20669;SDS011;10494;50.868;4.180;2023-09-08T02:46:12;17.42;;;10.65;;
20669;SDS011;10494;50.868;4.180;2023-09-08T02:48:38;14.93;;;9.82;;
20669;SDS011;10494;50.868;4.180;2023-09-08T02:51:04;18.15;;;9.77;;
20669;SDS011;10494;50.868;4.180;2023-09-08T02:53:30;12.88;;;9.70;;
20669;SDS011;10494;50.868;4.180;2023-09-08T02:55:56;13.02;;;10.13;;
20669;SDS011;10494;50.868;4.180;2023-09-08T02:58:22;14.60;;;9.68;;
20669;SDS011;10494;50.868;4.180;2023-09-08T03:00:47;16.80;;;10.15;;
20669;SDS011;10494;50.868;4.180;2023-09-08T03:03:13;17.45;;;10.35;;
20669;SDS011;10494;50.868;4.180;2023-09-08T03:05:39;21.35;;;10.40;;
20669;SDS011;10494;50.868;4.180;2023-09-08T03:08:05;13.40;;;9.07;;
20669;SDS011;10494;50.868;4.180;2023-09-08T03:10:31;11.85;;;9.70;;
20669;SDS011;10494;50.868;4.180;2023-09-08T03:12:59;12.70;;;9.15;;
20669;SDS011;10494;50.868;4.180;2023-09-08T03:15:25;11.55;;;8.27;;
20669;SDS011;10494;50.868;4.180;2023-09-08T03:17:53;13.35;;;8.98;;
20669;SDS011;10494;50.868;4.180;2023-09-08T03:20:20;12.73;;;9.77;;
20669;SDS011;10494;50.868;4.180;2023-09-08T03:22:45;13.52;;;9.48;;
20669;SDS011;10494;50.868;4.180;2023-09-08T03:25:13;14.23;;;8.52;;
20669;SDS011;10494;50.868;4.180;2023-09-08T03:27:39;18.23;;;9.45;;
20669;SDS011;10494;50.868;4.180;2023-09-08T03:30:05;12.05;;;8.32;;
20669;SDS011;10494;50.868;4.180;2023-09-08T03:32:32;12.25;;;8.77;;
20669;SDS011;10494;50.868;4.180;2023-09-08T03:34:58;10.80;;;8.82;;
20669;SDS011;10494;50.868;4.180;2023-09-08T03:37:23;15.32;;;8.20;;
20669;SDS011;10494;50.868;4.180;2023-09-08T03:39:51;13.35;;;8.38;;
20669;SDS011;10494;50.868;4.180;2023-09-08T03:42:17;10.23;;;8.63;;
20669;SDS011;10494;50.868;4.180;2023-09-08T03:44:42;11.35;;;8.05;;
20669;SDS011;10494;50.868;4.180;2023-09-08T03:47:08;12.93;;;9.02;;
20669;SDS011;10494;50.868;4.180;2023-09-08T03:49:34;11.75;;;8.40;;
20669;SDS011;10494;50.868;4.180;2023-09-08T03:51:59;12.57;;;8.07;;
20669;SDS011;10494;50.868;4.180;2023-09-08T03:54:25;11.98;;;8.35;;
20669;SDS011;10494;50.868;4.180;2023-09-08T03:56:50;12.10;;;8.82;;
20669;SDS011;10494;50.868;4.180;2023-09-08T03:59:16;14.00;;;9.25;;
20669;SDS011;10494;50.868;4.180;2023-09-08T04:01:41;11.55;;;8.52;;
20669;SDS011;10494;50.868;4.180;2023-09-08T04:04:07;19.50;;;9.13;;
20669;SDS011;10494;50.868;4.180;2023-09-08T04:06:33;11.88;;;8.55;;
20669;SDS011;10494;50.868;4.180;2023-09-08T04:08:59;12.40;;;9.02;;
20669;SDS011;10494;50.868;4.180;2023-09-08T04:11:25;13.77;;;8.98;;
20669;SDS011;10494;50.868;4.180;2023-09-08T04:13:51;14.35;;;9.35;;
20669;SDS011;10494;50.868;4.180;2023-09-08T04:16:17;13.10;;;8.65;;
20669;SDS011;10494;50.868;4.180;2023-09-08T04:18:42;12.15;;;8.48;;
20669;SDS011;10494;50.868;4.180;2023-09-08T04:21:08;14.55;;;9.32;;
20669;SDS011;10494;50.868;4.180;2023-09-08T04:23:34;13.88;;;9.30;;
20669;SDS011;10494;50.868;4.180;2023-09-08T04:25:59;11.32;;;8.70;;
20669;SDS011;10494;50.868;4.180;2023-09-08T04:28:27;10.07;;;8.50;;
20669;SDS011;10494;50.868;4.180;2023-09-08T04:30:52;14.20;;;8.60;;
20669;SDS011;10494;50.868;4.180;2023-09-08T04:33:18;14.98;;;9.85;;
20669;SDS011;10494;50.868;4.180;2023-09-08T04:35:44;12.30;;;9.43;;
20669;SDS011;10494;50.868;4.180;2023-09-08T04:38:09;13.38;;;8.75;;
20669;SDS011;10494;50.868;4.180;2023-09-08T04:40:35;21.25;;;10.00;;
20669;SDS011;10494;50.868;4.180;2023-09-08T04:43:00;19.63;;;9.90;;
20669;SDS011;10494;50.868;4.180;2023-09-08T04:45:26;12.43;;;9.63;;
20669;SDS011;10494;50.868;4.180;2023-09-08T04:47:52;11.90;;;9.35;;
20669;SDS011;10494;50.868;4.180;2023-09-08T04:50:17;13.65;;;9.10;;
20669;SDS011;10494;50.868;4.180;2023-09-08T04:52:43;15.05;;;9.45;;
20669;SDS011;10494;50.868;4.180;2023-09-08T04:55:09;18.23;;;9.63;;
20669;SDS011;10494;50.868;4.180;2023-09-08T04:57:35;15.98;;;10.13;;
20669;SDS011;10494;50.868;4.180;2023-09-08T05:00:01;11.95;;;9.05;;
20669;SDS011;10494;50.868;4.180;2023-09-08T05:02:27;11.75;;;9.88;;
20669;SDS011;10494;50.868;4.180;2023-09-08T05:04:53;14.55;;;10.38;;
20669;SDS011;10494;50.868;4.180;2023-09-08T05:07:18;16.25;;;9.90;;
20669;SDS011;10494;50.868;4.180;2023-09-08T05:09:44;14.77;;;10.10;;
20669;SDS011;10494;50.868;4.180;2023-09-08T05:12:10;20.60;;;10.93;;
20669;SDS011;10494;50.868;4.180;2023-09-08T05:14:35;13.45;;;9.63;;
20669;SDS011;10494;50.868;4.180;2023-09-08T05:17:01;11.43;;;9.23;;
20669;SDS011;10494;50.868;4.180;2023-09-08T05:19:27;12.95;;;9.18;;
20669;SDS011;10494;50.868;4.180;2023-09-08T05:21:53;11.70;;;9.35;;
20669;SDS011;10494;50.868;4.180;2023-09-08T05:24:20;12.95;;;9.07;;
20669;SDS011;10494;50.868;4.180;2023-09-08T05:26:46;13.63;;;9.32;;
20669;SDS011;10494;50.868;4.180;2023-09-08T05:29:12;16.23;;;9.75;;
20669;SDS011;10494;50.868;4.180;2023-09-08T05:31:38;14.70;;;10.63;;
20669;SDS011;10494;50.868;4.180;2023-09-08T05:34:04;13.68;;;9.40;;
20669;SDS011;10494;50.868;4.180;2023-09-08T05:36:30;15.25;;;9.52;;
20669;SDS011;10494;50.868;4.180;2023-09-08T05:38:57;17.17;;;9.55;;
20669;SDS011;10494;50.868;4.180;2023-09-08T05:41:23;11.30;;;9.23;;
20669;SDS011;10494;50.868;4.180;2023-09-08T05:43:49;13.98;;;9.32;;
20669;SDS011;10494;50.868;4.180;2023-09-08T05:46:14;12.45;;;9.40;;
20669;SDS011;10494;50.868;4.180;2023-09-08T05:48:40;12.60;;;9.48;;
20669;SDS011;10494;50.868;4.180;2023-09-08T05:51:06;13.98;;;9.35;;
20669;SDS011;10494;50.868;4.180;2023-09-08T05:53:32;15.55;;;9.93;;
20669;SDS011;10494;50.868;4.180;2023-09-08T05:55:58;15.48;;;8.98;;
20669;SDS011;10494;50.868;4.180;2023-09-08T05:58:24;12.73;;;8.98;;
20669;SDS011;10494;50.868;4.180;2023-09-08T06:00:52;15.93;;;9.88;;
20669;SDS011;10494;50.868;4.180;2023-09-08T06:03:18;15.20;;;9.57;;
20669;SDS011;10494;50.868;4.180;2023-09-08T06:05:44;19.63;;;10.60;;
20669;SDS011;10494;50.868;4.180;2023-09-08T06:08:10;14.90;;;10.10;;
20669;SDS011;10494;50.868;4.180;2023-09-08T06:10:37;14.77;;;10.32;;
20669;SDS011;10494;50.868;4.180;2023-09-08T06:13:04;17.83;;;10.80;;
20669;SDS011;10494;50.868;4.180;2023-09-08T06:15:30;14.82;;;10.48;;
20669;SDS011;10494;50.868;4.180;2023-09-08T06:17:56;19.25;;;10.57;;
20669;SDS011;10494;50.868;4.180;2023-09-08T06:20:21;16.15;;;10.95;;
20669;SDS011;10494;50.868;4.180;2023-09-08T06:22:47;17.50;;;10.07;;
20669;SDS011;10494;50.868;4.180;2023-09-08T06:25:14;16.83;;;10.35;;
20669;SDS011;10494;50.868;4.180;2023-09-08T06:27:39;14.85;;;9.90;;
20669;SDS011;10494;50.868;4.180;2023-09-08T06:30:05;12.35;;;9.75;;
20669;SDS011;10494;50.868;4.180;2023-09-08T06:32:31;20.08;;;10.80;;
20669;SDS011;10494;50.868;4.180;2023-09-08T06:34:57;15.77;;;10.65;;
20669;SDS011;10494;50.868;4.180;2023-09-08T06:37:23;15.73;;;11.38;;
20669;SDS011;10494;50.868;4.180;2023-09-08T06:39:48;16.55;;;12.10;;
20669;SDS011;10494;50.868;4.180;2023-09-08T06:42:14;13.18;;;11.68;;
20669;SDS011;10494;50.868;4.180;2023-09-08T06:44:40;16.15;;;11.10;;
20669;SDS011;10494;50.868;4.180;2023-09-08T06:47:05;15.32;;;11.43;;
20669;SDS011;10494;50.868;4.180;2023-09-08T06:49:32;14.00;;;10.88;;
20669;SDS011;10494;50.868;4.180;2023-09-08T06:51:58;16.70;;;11.80;;
20669;SDS011;10494;50.868;4.180;2023-09-08T06:54:23;16.60;;;11.68;;
20669;SDS011;10494;50.868;4.180;2023-09-08T06:56:49;14.57;;;11.15;;
20669;SDS011;10494;50.868;4.180;2023-09-08T06:59:15;15.98;;;11.95;;
20669;SDS011;10494;50.868;4.180;2023-09-08T07:01:41;13.75;;;11.38;;
20669;SDS011;10494;50.868;4.180;2023-09-08T07:04:06;17.60;;;12.18;;
20669;SDS011;10494;50.868;4.180;2023-09-08T07:06:32;14.93;;;10.90;;
20669;SDS011;10494;50.868;4.180;2023-09-08T07:08:58;14.60;;;11.88;;
20669;SDS011;10494;50.868;4.180;2023-09-08T07:11:24;18.48;;;12.00;;
20669;SDS011;10494;50.868;4.180;2023-09-08T07:13:50;27.60;;;11.75;;
20669;SDS011;10494;50.868;4.180;2023-09-08T07:16:15;20.10;;;11.63;;
20669;SDS011;10494;50.868;4.180;2023-09-08T07:18:41;17.02;;;11.45;;
20669;SDS011;10494;50.868;4.180;2023-09-08T07:21:06;15.00;;;11.27;;
20669;SDS011;10494;50.868;4.180;2023-09-08T07:23:32;17.90;;;11.88;;
20669;SDS011;10494;50.868;4.180;2023-09-08T07:26:00;13.23;;;10.45;;
20669;SDS011;10494;50.868;4.180;2023-09-08T07:28:25;15.25;;;11.43;;
20669;SDS011;10494;50.868;4.180;2023-09-08T07:30:51;17.20;;;10.32;;
20669;SDS011;10494;50.868;4.180;2023-09-08T07:33:16;13.77;;;10.65;;
20669;SDS011;10494;50.868;4.180;2023-09-08T07:35:44;15.95;;;9.45;;
20669;SDS011;10494;50.868;4.180;2023-09-08T07:38:10;13.18;;;8.93;;
20669;SDS011;10494;50.868;4.180;2023-09-08T07:40:35;11.10;;;8.68;;
20669;SDS011;10494;50.868;4.180;2023-09-08T07:43:02;11.23;;;7.45;;
20669;SDS011;10494;50.868;4.180;2023-09-08T07:45:28;11.48;;;7.95;;
20669;SDS011;10494;50.868;4.180;2023-09-08T07:47:54;11.80;;;7.95;;
20669;SDS011;10494;50.868;4.180;2023-09-08T07:50:22;10.63;;;7.57;;
20669;SDS011;10494;50.868;4.180;2023-09-08T07:52:50;12.52;;;7.25;;
20669;SDS011;10494;50.868;4.180;2023-09-08T07:55:16;17.85;;;7.78;;
20669;SDS011;10494;50.868;4.180;2023-09-08T07:57:43;13.05;;;6.50;;
20669;SDS011;10494;50.868;4.180;2023-09-08T08:00:11;9.32;;;6.55;;
20669;SDS011;10494;50.868;4.180;2023-09-08T08:02:37;10.55;;;7.55;;
20669;SDS011;10494;50.868;4.180;2023-09-08T08:05:14;11.68;;;6.22;;
20669;SDS011;10494;50.868;4.180;2023-09-08T08:07:41;10.75;;;7.20;;
20669;SDS011;10494;50.868;4.180;2023-09-08T08:10:08;11.32;;;7.90;;
20669;SDS011;10494;50.868;4.180;2023-09-08T08:12:35;7.68;;;5.53;;
20669;SDS011;10494;50.868;4.180;2023-09-08T08:15:01;9.90;;;7.32;;
20669;SDS011;10494;50.868;4.180;2023-09-08T08:17:27;8.55;;;6.22;;
20669;SDS011;10494;50.868;4.180;2023-09-08T08:19:55;15.65;;;7.40;;
20669;SDS011;10494;50.868;4.180;2023-09-08T08:22:20;11.93;;;6.55;;
20669;SDS011;10494;50.868;4.180;2023-09-08T08:24:46;9.07;;;6.10;;
20669;SDS011;10494;50.868;4.180;2023-09-08T08:27:12;8.23;;;6.70;;
20669;SDS011;10494;50.868;4.180;2023-09-08T08:29:38;12.80;;;6.78;;
20669;SDS011;10494;50.868;4.180;2023-09-08T08:32:04;10.70;;;6.70;;
20669;SDS011;10494;50.868;4.180;2023-09-08T08:34:30;11.27;;;7.35;;
20669;SDS011;10494;50.868;4.180;2023-09-08T08:36:56;8.68;;;6.03;;
20669;SDS011;10494;50.868;4.180;2023-09-08T08:39:22;10.40;;;5.90;;
20669;SDS011;10494;50.868;4.180;2023-09-08T08:41:47;7.78;;;6.72;;
20669;SDS011;10494;50.868;4.180;2023-09-08T08:44:13;8.13;;;5.93;;
20669;SDS011;10494;50.868;4.180;2023-09-08T08:46:43;8.95;;;6.07;;
20669;SDS011;10494;50.868;4.180;2023-09-08T08:49:11;9.02;;;6.20;;
20669;SDS011;10494;50.868;4.180;2023-09-08T08:51:42;7.40;;;5.07;;
20669;SDS011;10494;50.868;4.180;2023-09-08T08:54:11;9.77;;;6.03;;
20669;SDS011;10494;50.868;4.180;2023-09-08T08:56:38;12.93;;;5.90;;
20669;SDS011;10494;50.868;4.180;2023-09-08T08:59:04;9.00;;;5.88;;
20669;SDS011;10494;50.868;4.180;2023-09-08T09:01:31;8.60;;;6.57;;
20669;SDS011;10494;50.868;4.180;2023-09-08T09:03:57;7.43;;;5.50;;
20669;SDS011;10494;50.868;4.180;2023-09-08T09:06:23;6.40;;;4.90;;
20669;SDS011;10494;50.868;4.180;2023-09-08T09:08:49;11.38;;;5.60;;
20669;SDS011;10494;50.868;4.180;2023-09-08T09:11:14;9.90;;;6.05;;
20669;SDS011;10494;50.868;4.180;2023-09-08T09:13:41;7.85;;;5.70;;
20669;SDS011;10494;50.868;4.180;2023-09-08T09:16:06;13.95;;;5.47;;
20669;SDS011;10494;50.868;4.180;2023-09-08T09:18:57;9.80;;;5.40;;
20669;SDS011;10494;50.868;4.180;2023-09-08T09:21:24;8.40;;;5.35;;
20669;SDS011;10494;50.868;4.180;2023-09-08T09:24:16;7.13;;;5.95;;
20669;SDS011;10494;50.868;4.180;2023-09-08T09:26:43;10.02;;;6.40;;
20669;SDS011;10494;50.868;4.180;2023-09-08T09:29:15;8.02;;;5.88;;
20669;SDS011;10494;50.868;4.180;2023-09-08T09:31:50;8.20;;;5.38;;
20669;SDS011;10494;50.868;4.180;2023-09-08T09:34:17;10.00;;;4.97;;
20669;SDS011;10494;50.868;4.180;2023-09-08T09:36:43;11.82;;;7.32;;
20669;SDS011;10494;50.868;4.180;2023-09-08T09:39:10;8.63;;;6.45;;
20669;SDS011;10494;50.868;4.180;2023-09-08T09:41:37;10.27;;;6.18;;
20669;SDS011;10494;50.868;4.180;2023-09-08T09:44:03;12.10;;;6.70;;
20669;SDS011;10494;50.868;4.180;2023-09-08T09:46:28;8.77;;;6.28;;
20669;SDS011;10494;50.868;4.180;2023-09-08T09:48:54;8.13;;;5.35;;
20669;SDS011;10494;50.868;4.180;2023-09-08T09:51:21;7.07;;;5.50;;
20669;SDS011;10494;50.868;4.180;2023-09-08T09:53:49;7.57;;;5.18;;
20669;SDS011;10494;50.868;4.180;2023-09-08T09:56:16;9.02;;;5.43;;
20669;SDS011;10494;50.868;4.180;2023-09-08T09:58:43;10.43;;;6.13;;
20669;SDS011;10494;50.868;4.180;2023-09-08T10:01:10;10.45;;;6.85;;
20669;SDS011;10494;50.868;4.180;2023-09-08T10:03:39;10.68;;;5.72;;
20669;SDS011;10494;50.868;4.180;2023-09-08T10:06:05;6.97;;;4.63;;
20669;SDS011;10494;50.868;4.180;2023-09-08T10:08:32;9.20;;;5.38;;
20669;SDS011;10494;50.868;4.180;2023-09-08T10:11:03;9.18;;;4.95;;
20669;SDS011;10494;50.868;4.180;2023-09-08T10:13:32;10.13;;;5.75;;
20669;SDS011;10494;50.868;4.180;2023-09-08T10:16:08;15.60;;;6.30;;
20669;SDS011;10494;50.868;4.180;2023-09-08T10:18:34;8.55;;;5.07;;
20669;SDS011;10494;50.868;4.180;2023-09-08T10:21:03;7.43;;;5.30;;
20669;SDS011;10494;50.868;4.180;2023-09-08T10:26:02;11.88;;;7.88;;
20669;SDS011;10494;50.868;4.180;2023-09-08T10:28:33;11.02;;;8.02;;
20669;SDS011;10494;50.868;4.180;2023-09-08T10:31:00;10.20;;;6.03;;
20669;SDS011;10494;50.868;4.180;2023-09-08T10:33:27;8.98;;;7.10;;
20669;SDS011;10494;50.868;4.180;2023-09-08T10:35:53;13.55;;;8.32;;
20669;SDS011;10494;50.868;4.180;2023-09-08T10:38:23;11.02;;;6.72;;
20669;SDS011;10494;50.868;4.180;2023-09-08T10:40:54;16.83;;;7.38;;
20669;SDS011;10494;50.868;4.180;2023-09-08T10:43:45;12.88;;;6.68;;
20669;SDS011;10494;50.868;4.180;2023-09-08T10:46:23;12.13;;;7.60;;
20669;SDS011;10494;50.868;4.180;2023-09-08T10:48:52;12.63;;;6.28;;
20669;SDS011;10494;50.868;4.180;2023-09-08T10:51:19;13.75;;;8.20;;
20669;SDS011;10494;50.868;4.180;2023-09-08T10:53:48;12.85;;;7.68;;
20669;SDS011;10494;50.868;4.180;2023-09-08T10:56:17;15.38;;;7.18;;
20669;SDS011;10494;50.868;4.180;2023-09-08T10:58:43;6.82;;;5.30;;
20669;SDS011;10494;50.868;4.180;2023-09-08T11:01:19;11.15;;;5.55;;
20669;SDS011;10494;50.868;4.180;2023-09-08T11:03:52;7.05;;;4.47;;
20669;SDS011;10494;50.868;4.180;2023-09-08T11:06:19;7.38;;;4.90;;
20669;SDS011;10494;50.868;4.180;2023-09-08T11:08:49;9.07;;;5.32;;
20669;SDS011;10494;50.868;4.180;2023-09-08T11:11:18;7.03;;;5.35;;
20669;SDS011;10494;50.868;4.180;2023-09-08T11:13:44;10.88;;;4.80;;
20669;SDS011;10494;50.868;4.180;2023-09-08T11:16:15;9.70;;;5.15;;
20669;SDS011;10494;50.868;4.180;2023-09-08T11:18:42;7.05;;;5.22;;
20669;SDS011;10494;50.868;4.180;2023-09-08T11:21:08;13.68;;;6.70;;
20669;SDS011;10494;50.868;4.180;2023-09-08T11:23:35;7.82;;;5.00;;
20669;SDS011;10494;50.868;4.180;2023-09-08T11:26:01;11.65;;;6.68;;
20669;SDS011;10494;50.868;4.180;2023-09-08T11:28:27;10.45;;;5.63;;
20669;SDS011;10494;50.868;4.180;2023-09-08T11:30:54;7.15;;;5.28;;
20669;SDS011;10494;50.868;4.180;2023-09-08T11:33:21;7.30;;;4.38;;
20669;SDS011;10494;50.868;4.180;2023-09-08T11:35:51;6.10;;;4.43;;
20669;SDS011;10494;50.868;4.180;2023-09-08T11:38:18;6.30;;;4.65;;
20669;SDS011;10494;50.868;4.180;2023-09-08T11:40:53;6.30;;;4.25;;
20669;SDS011;10494;50.868;4.180;2023-09-08T11:43:22;8.80;;;4.85;;
20669;SDS011;10494;50.868;4.180;2023-09-08T11:45:48;7.93;;;4.72;;
20669;SDS011;10494;50.868;4.180;2023-09-08T11:48:14;11.13;;;4.80;;
20669;SDS011;10494;50.868;4.180;2023-09-08T11:50:43;4.95;;;3.90;;
20669;SDS011;10494;50.868;4.180;2023-09-08T11:53:09;9.43;;;4.80;;
20669;SDS011;10494;50.868;4.180;2023-09-08T11:55:35;7.88;;;4.25;;
20669;SDS011;10494;50.868;4.180;2023-09-08T11:58:04;7.40;;;4.13;;
20669;SDS011;10494;50.868;4.180;2023-09-08T12:00:30;15.15;;;4.30;;
20669;SDS011;10494;50.868;4.180;2023-09-08T12:03:08;5.30;;;4.07;;
20669;SDS011;10494;50.868;4.180;2023-09-08T12:05:39;9.75;;;4.60;;
20669;SDS011;10494;50.868;4.180;2023-09-08T12:08:06;7.57;;;4.82;;
20669;SDS011;10494;50.868;4.180;2023-09-08T12:10:37;7.10;;;4.22;;
20669;SDS011;10494;50.868;4.180;2023-09-08T12:13:04;7.93;;;3.90;;
20669;SDS011;10494;50.868;4.180;2023-09-08T12:15:30;10.98;;;3.90;;
20669;SDS011;10494;50.868;4.180;2023-09-08T12:18:03;12.88;;;4.38;;
20669;SDS011;10494;50.868;4.180;2023-09-08T12:20:30;5.78;;;3.80;;
20669;SDS011;10494;50.868;4.180;2023-09-08T12:22:59;4.55;;;3.60;;
20669;SDS011;10494;50.868;4.180;2023-09-08T12:25:26;8.82;;;4.00;;
20669;SDS011;10494;50.868;4.180;2023-09-08T12:27:53;6.28;;;3.72;;
20669;SDS011;10494;50.868;4.180;2023-09-08T12:30:20;10.48;;;4.35;;
20669;SDS011;10494;50.868;4.180;2023-09-08T12:32:47;8.50;;;4.10;;
20669;SDS011;10494;50.868;4.180;2023-09-08T12:35:19;11.25;;;4.97;;
20669;SDS011;10494;50.868;4.180;2023-09-08T12:38:02;9.10;;;4.13;;
20669;SDS011;10494;50.868;4.180;2023-09-08T12:40:29;7.55;;;4.43;;
20669;SDS011;10494;50.868;4.180;2023-09-08T12:42:56;5.88;;;3.72;;
20669;SDS011;10494;50.868;4.180;2023-09-08T12:45:25;7.13;;;4.38;;
20669;SDS011;10494;50.868;4.180;2023-09-08T12:47:51;7.13;;;4.05;;
20669;SDS011;10494;50.868;4.180;2023-09-08T12:50:17;9.48;;;3.78;;
20669;SDS011;10494;50.868;4.180;2023-09-08T12:52:43;6.22;;;3.65;;
20669;SDS011;10494;50.868;4.180;2023-09-08T12:55:09;8.95;;;3.58;;
20669;SDS011;10494;50.868;4.180;2023-09-08T12:57:35;9.73;;;4.05;;
20669;SDS011;10494;50.868;4.180;2023-09-08T13:00:02;8.70;;;3.92;;
20669;SDS011;10494;50.868;4.180;2023-09-08T13:02:29;7.15;;;3.60;;
20669;SDS011;10494;50.868;4.180;2023-09-08T13:04:54;13.75;;;4.22;;
20669;SDS011;10494;50.868;4.180;2023-09-08T13:07:20;10.85;;;4.13;;
20669;SDS011;10494;50.868;4.180;2023-09-08T13:09:46;10.13;;;3.97;;
20669;SDS011;10494;50.868;4.180;2023-09-08T13:12:11;12.70;;;4.25;;
20669;SDS011;10494;50.868;4.180;2023-09-08T13:14:40;9.55;;;4.13;;
20669;SDS011;10494;50.868;4.180;2023-09-08T13:17:05;6.88;;;4.10;;
20669;SDS011;10494;50.868;4.180;2023-09-08T13:19:31;15.80;;;4.53;;
20669;SDS011;10494;50.868;4.180;2023-09-08T13:21:57;13.55;;;4.35;;
20669;SDS011;10494;50.868;4.180;2023-09-08T13:24:23;13.25;;;4.88;;
20669;SDS011;10494;50.868;4.180;2023-09-08T13:26:49;7.88;;;4.43;;
20669;SDS011;10494;50.868;4.180;2023-09-08T13:29:15;9.23;;;4.00;;
20669;SDS011;10494;50.868;4.180;2023-09-08T13:31:42;12.02;;;4.15;;
20669;SDS011;10494;50.868;4.180;2023-09-08T13:34:07;12.25;;;4.30;;
20669;SDS011;10494;50.868;4.180;2023-09-08T13:36:33;18.27;;;4.13;;
20669;SDS011;10494;50.868;4.180;2023-09-08T13:38:58;10.57;;;4.22;;
20669;SDS011;10494;50.868;4.180;2023-09-08T13:41:25;12.68;;;4.20;;
20669;SDS011;10494;50.868;4.180;2023-09-08T13:44:08;11.73;;;4.35;;
20669;SDS011;10494;50.868;4.180;2023-09-08T13:46:33;14.60;;;4.57;;
20669;SDS011;10494;50.868;4.180;2023-09-08T13:48:59;7.38;;;4.30;;
20669;SDS011;10494;50.868;4.180;2023-09-08T13:51:24;10.10;;;4.03;;
20669;SDS011;10494;50.868;4.180;2023-09-08T13:53:50;10.82;;;4.60;;
20669;SDS011;10494;50.868;4.180;2023-09-08T13:56:16;16.23;;;4.28;;
20669;SDS011;10494;50.868;4.180;2023-09-08T13:58:41;15.82;;;4.47;;
20669;SDS011;10494;50.868;4.180;2023-09-08T14:01:10;15.05;;;4.60;;
20669;SDS011;10494;50.868;4.180;2023-09-08T14:03:36;12.02;;;4.35;;
20669;SDS011;10494;50.868;4.180;2023-09-08T14:06:01;8.32;;;4.47;;
20669;SDS011;10494;50.868;4.180;2023-09-08T14:08:27;17.70;;;4.88;;
20669;SDS011;10494;50.868;4.180;2023-09-08T14:10:52;13.73;;;4.57;;
20669;SDS011;10494;50.868;4.180;2023-09-08T14:13:19;13.10;;;4.45;;
20669;SDS011;10494;50.868;4.180;2023-09-08T14:15:44;15.30;;;4.60;;
20669;SDS011;10494;50.868;4.180;2023-09-08T14:18:10;13.57;;;4.60;;
20669;SDS011;10494;50.868;4.180;2023-09-08T14:20:36;14.30;;;4.70;;
20669;SDS011;10494;50.868;4.180;2023-09-08T14:23:02;14.48;;;5.15;;
20669;SDS011;10494;50.868;4.180;2023-09-08T14:25:27;17.85;;;5.78;;
20669;SDS011;10494;50.868;4.180;2023-09-08T14:27:53;20.92;;;4.78;;
20669;SDS011;10494;50.868;4.180;2023-09-08T14:30:19;14.95;;;4.93;;
20669;SDS011;10494;50.868;4.180;2023-09-08T14:32:44;15.57;;;5.43;;
20669;SDS011;10494;50.868;4.180;2023-09-08T14:35:11;16.35;;;5.57;;
20669;SDS011;10494;50.868;4.180;2023-09-08T14:37:37;13.05;;;5.13;;
20669;SDS011;10494;50.868;4.180;2023-09-08T14:40:03;20.95;;;5.30;;